createdAt,value
2019-05-21T20:53:03.048Z,98402.24
2019-05-21T20:55:33.987Z,98406.34
2019-05-21T20:58:16.474Z,98412.06
2019-05-21T21:00:49.570Z,98417.28
2019-05-21T21:03:19.683Z,98423.02
2019-05-21T21:05:50.033Z,98423.54
2019-05-21T21:08:22.661Z,98424.72
2019-05-21T21:10:57.318Z,98437.68
2019-05-21T21:13:28.869Z,98432.55
2019-05-21T21:15:59.331Z,98435.05
2019-05-21T21:18:29.863Z,98443.03
2019-05-21T21:20:59.539Z,98440.56
2019-05-21T21:23:31.000Z,98437.61
2019-05-21T21:26:00.945Z,98437.21
2019-05-21T21:28:30.654Z,98441.00
2019-05-21T21:31:00.622Z,98436.08
2019-05-21T21:33:30.754Z,98431.43
2019-05-21T21:36:00.747Z,98433.55
2019-05-21T21:38:33.386Z,98436.70
2019-05-21T21:41:03.052Z,98434.31
2019-05-21T21:43:32.830Z,98428.11
2019-05-21T21:46:02.699Z,98427.80
2019-05-21T21:48:32.817Z,98429.64
2019-05-21T21:51:02.646Z,98430.95
2019-05-21T21:53:33.035Z,98435.22
2019-05-21T21:56:02.679Z,98434.45
2019-05-21T21:58:32.527Z,98431.24
2019-05-21T22:01:06.580Z,98440.41
2019-05-21T22:03:38.921Z,98442.48
2019-05-21T22:06:15.351Z,98441.41
2019-05-21T22:08:48.347Z,98428.39
2019-05-21T22:11:20.065Z,98424.67
2019-05-21T22:13:49.950Z,98426.09
2019-05-21T22:16:20.300Z,98431.17
2019-05-21T22:18:50.862Z,98431.51
2019-05-21T22:21:21.149Z,98429.98
2019-05-21T22:23:50.860Z,98441.59
2019-05-21T22:26:20.558Z,98444.73
2019-05-21T22:28:50.477Z,98449.27
2019-05-21T22:31:20.262Z,98444.88
2019-05-21T22:33:50.031Z,98455.72
2019-05-21T22:36:19.921Z,98456.99
2019-05-21T22:38:49.738Z,98455.35
2019-05-21T22:41:38.605Z,98447.02
2019-05-21T22:44:08.174Z,98438.19
2019-05-21T22:46:37.794Z,98443.95
2019-05-21T22:49:07.420Z,98438.06
2019-05-21T22:51:36.991Z,98434.72
2019-05-21T22:54:06.674Z,98428.10
2019-05-21T22:56:36.368Z,98426.30
2019-05-21T22:59:06.150Z,98431.11
2019-05-21T23:01:37.842Z,98437.30
2019-05-21T23:04:07.522Z,98439.62
2019-05-21T23:06:37.459Z,98435.97
2019-05-21T23:09:08.603Z,98434.19
2019-05-21T23:11:38.587Z,98436.22
2019-05-21T23:14:08.307Z,98441.28
2019-05-21T23:16:38.093Z,98447.55
2019-05-21T23:19:08.902Z,98440.64
2019-05-21T23:21:39.709Z,98448.27
2019-05-21T23:24:26.111Z,98444.34
2019-05-21T23:26:56.358Z,98444.63
2019-05-21T23:29:26.342Z,98447.13
2019-05-21T23:31:56.336Z,98447.20
2019-05-21T23:34:26.833Z,98443.64
2019-05-21T23:36:57.769Z,98448.60
2019-05-21T23:39:28.432Z,98447.34
2019-05-21T23:41:58.187Z,98445.78
2019-05-21T23:44:27.979Z,98441.59
2019-05-21T23:46:58.279Z,98445.56
2019-05-21T23:49:28.363Z,98451.38
2019-05-21T23:51:58.304Z,98455.02
2019-05-21T23:54:28.224Z,98453.56
2019-05-21T23:56:59.813Z,98455.52
2019-05-21T23:59:29.469Z,98457.61
